Aberporth, United Kingdom

7:16 PM BST on August 31, 2015 (GMT +0100)
Crymych | | Change Station
CLOSE
Current Station
Personal Weather Station
Location: Crymych, Pembrokeshire
Elevation: 700 ft
Nearby Weather Stations

Elev 700 ft 51.98 °N, 4.65 °W | Updated 0 second ago

Partly Cloudy
Partly Cloudy
55.0 °F
Feels Like 55.0 °F
N
9.0
Wind Variable Wind from NW
Gusts 13.0 mph

Today
High -- | Low -- °F
--% Chance of Precip.
Yesterday
High -- | Low -- °F
Precip. -- in
6:27 AM 8:08 PM
Waning Gibbous, 94% visible
Pressure 30.04 in
Visibility 6.2 miles
Clouds Few 8000 ft
Dew Point 51 °F
Humidity 86%
Rainfall 0.06 in
Snow Depth Not available.
UV 0.0 out of 12
Pollen Not available.
Air Quality Not available.
Flu Activity Not available.
METAR EGOP 311750Z AUTO 35009KT 9999 // FEW080/// 16/12 Q1017
Pressure 30.04 in
Visibility 6.2 miles
Clouds Few 8000 ft
Dew Point 51 °F
Humidity 86%
Rainfall 0.06 in
Snow Depth Not available.
UV 0.0 out of 12
Pollen Not available.
Air Quality Not available.
Flu Activity Not available.
METAR EGOP 311750Z AUTO 35009KT 9999 // FEW080/// 16/12 Q1017

10-Day Weather Forecast

×

Almanac

Astronomy

Aug. 31, 2015 Rise Set
Actual Time
Civil Twilight
Nautical Twilight
Astronomical Twilight
Moon
Length of Visible Light
Length of Day
Tomorrow will be .
, % of the Moon is Illuminated

Today's Extremes

Country Highs Country Lows

Community

WunderPhotos

Upload Photos

1,851,327 photos uploaded!

WunderBlogs® & News

Nearby

Air Quality

  Air Quality AQ Index Pollutant
Not available.

Snow Depth

Station Depth Elevation

Earthquake Activity

City Distance Mag. Time & Date
Minimum magnitude displayed is 2.5.

Coastal Water Temperatures

Place Temperature

Stations

Nearby Weather Stations

Station Location Temp. Windchill Dew Point Humidity Wind Precip. Elev Updated Type